sensor_id;sensor_type;location;lat;lon;timestamp;pressure;altitude;pressure_sealevel;temperature;humidity
58471;BME280;44258;51.288;12.068;2022-10-31T00:01:50;100875.47;;;12.81;62.46
58471;BME280;44258;51.288;12.068;2022-10-31T00:04:16;100885.22;;;12.84;62.59
58471;BME280;44258;51.288;12.068;2022-10-31T00:06:43;100881.59;;;12.85;62.55
58471;BME280;44258;51.288;12.068;2022-10-31T00:09:10;100881.41;;;12.88;62.67
58471;BME280;44258;51.288;12.068;2022-10-31T00:11:37;100886.88;;;12.86;62.75
58471;BME280;44258;51.288;12.068;2022-10-31T00:14:05;100874.94;;;12.90;62.71
58471;BME280;44258;51.288;12.068;2022-10-31T00:16:32;100881.81;;;12.96;62.61
58471;BME280;44258;51.288;12.068;2022-10-31T00:19:03;100887.22;;;12.96;62.97
58471;BME280;44258;51.288;12.068;2022-10-31T00:21:35;100882.25;;;13.04;62.86
58471;BME280;44258;51.288;12.068;2022-10-31T00:24:03;100880.34;;;13.06;62.99
58471;BME280;44258;51.288;12.068;2022-10-31T00:26:30;100881.97;;;13.09;63.07
58471;BME280;44258;51.288;12.068;2022-10-31T00:28:58;100884.44;;;13.13;62.71
58471;BME280;44258;51.288;12.068;2022-10-31T00:31:27;100889.56;;;13.18;62.70
58471;BME280;44258;51.288;12.068;2022-10-31T00:33:57;100884.84;;;13.22;62.51
58471;BME280;44258;51.288;12.068;2022-10-31T00:36:26;100883.09;;;13.21;62.35
58471;BME280;44258;51.288;12.068;2022-10-31T00:38:55;100893.84;;;13.22;62.41
58471;BME280;44258;51.288;12.068;2022-10-31T00:41:22;100893.13;;;13.19;62.57
58471;BME280;44258;51.288;12.068;2022-10-31T00:43:51;100895.41;;;13.26;62.21
58471;BME280;44258;51.288;12.068;2022-10-31T00:46:18;100897.47;;;13.21;62.35
58471;BME280;44258;51.288;12.068;2022-10-31T00:48:45;100895.50;;;13.25;62.34
58471;BME280;44258;51.288;12.068;2022-10-31T00:51:12;100894.72;;;13.23;62.36
58471;BME280;44258;51.288;12.068;2022-10-31T00:53:41;100905.69;;;13.20;62.32
58471;BME280;44258;51.288;12.068;2022-10-31T00:56:08;100907.34;;;13.22;62.25
58471;BME280;44258;51.288;12.068;2022-10-31T00:58:35;100906.72;;;13.17;62.09
58471;BME280;44258;51.288;12.068;2022-10-31T01:01:02;100910.31;;;13.18;62.26
58471;BME280;44258;51.288;12.068;2022-10-31T01:03:31;100907.59;;;13.18;62.17
58471;BME280;44258;51.288;12.068;2022-10-31T01:06:00;100902.09;;;13.19;62.17
58471;BME280;44258;51.288;12.068;2022-10-31T01:08:28;100906.47;;;13.22;61.97
58471;BME280;44258;51.288;12.068;2022-10-31T01:11:05;100903.06;;;13.18;61.86
58471;BME280;44258;51.288;12.068;2022-10-31T01:13:34;100893.84;;;13.22;61.82
58471;BME280;44258;51.288;12.068;2022-10-31T01:16:02;100903.75;;;13.22;61.92
58471;BME280;44258;51.288;12.068;2022-10-31T01:18:32;100898.78;;;13.14;61.88
58471;BME280;44258;51.288;12.068;2022-10-31T01:21:05;100904.97;;;13.16;62.05
58471;BME280;44258;51.288;12.068;2022-10-31T01:23:35;100896.03;;;13.15;61.76
58471;BME280;44258;51.288;12.068;2022-10-31T01:26:09;100902.22;;;13.02;62.32
58471;BME280;44258;51.288;12.068;2022-10-31T01:28:37;100899.00;;;12.95;62.45
58471;BME280;44258;51.288;12.068;2022-10-31T01:31:06;100896.66;;;12.89;62.69
58471;BME280;44258;51.288;12.068;2022-10-31T01:33:33;100897.78;;;12.85;62.70
58471;BME280;44258;51.288;12.068;2022-10-31T01:36:00;100901.41;;;12.84;62.66
58471;BME280;44258;51.288;12.068;2022-10-31T01:38:28;100899.59;;;12.52;63.75
58471;BME280;44258;51.288;12.068;2022-10-31T01:41:00;100900.38;;;12.70;63.23
58471;BME280;44258;51.288;12.068;2022-10-31T01:43:48;100898.72;;;12.84;62.75
58471;BME280;44258;51.288;12.068;2022-10-31T01:46:18;100902.56;;;12.95;62.21
58471;BME280;44258;51.288;12.068;2022-10-31T01:48:46;100905.00;;;13.00;62.05
58471;BME280;44258;51.288;12.068;2022-10-31T01:51:14;100901.59;;;12.97;62.07
58471;BME280;44258;51.288;12.068;2022-10-31T01:53:44;100896.88;;;13.00;61.88
58471;BME280;44258;51.288;12.068;2022-10-31T01:56:13;100901.50;;;12.98;62.01
58471;BME280;44258;51.288;12.068;2022-10-31T01:58:42;100897.94;;;12.98;61.77
58471;BME280;44258;51.288;12.068;2022-10-31T02:01:13;100896.19;;;12.97;61.93
58471;BME280;44258;51.288;12.068;2022-10-31T02:03:41;100899.59;;;13.00;61.64
58471;BME280;44258;51.288;12.068;2022-10-31T02:06:18;100899.50;;;13.02;61.52
58471;BME280;44258;51.288;12.068;2022-10-31T02:08:47;100901.34;;;13.01;61.57
58471;BME280;44258;51.288;12.068;2022-10-31T02:11:15;100901.44;;;13.00;61.47
58471;BME280;44258;51.288;12.068;2022-10-31T02:13:42;100911.25;;;13.01;61.53
58471;BME280;44258;51.288;12.068;2022-10-31T02:16:11;100910.72;;;12.94;61.78
58471;BME280;44258;51.288;12.068;2022-10-31T02:18:38;100916.56;;;12.86;61.95
58471;BME280;44258;51.288;12.068;2022-10-31T02:21:11;100907.69;;;12.84;61.77
58471;BME280;44258;51.288;12.068;2022-10-31T02:27:07;100917.81;;;12.81;61.89
58471;BME280;44258;51.288;12.068;2022-10-31T02:30:07;100924.94;;;12.82;61.77
58471;BME280;44258;51.288;12.068;2022-10-31T02:32:57;100917.69;;;12.82;62.01
58471;BME280;44258;51.288;12.068;2022-10-31T02:35:36;100920.38;;;12.82;61.88
58471;BME280;44258;51.288;12.068;2022-10-31T02:38:14;100918.75;;;12.80;62.09
58471;BME280;44258;51.288;12.068;2022-10-31T02:40:51;100920.38;;;12.82;61.82
58471;BME280;44258;51.288;12.068;2022-10-31T02:43:21;100920.50;;;12.81;61.84
58471;BME280;44258;51.288;12.068;2022-10-31T02:45:57;100923.00;;;12.84;61.86
58471;BME280;44258;51.288;12.068;2022-10-31T02:48:28;100922.94;;;12.85;61.49
58471;BME280;44258;51.288;12.068;2022-10-31T02:50:59;100923.00;;;12.84;61.61
58471;BME280;44258;51.288;12.068;2022-10-31T02:53:31;100918.66;;;12.81;61.49
58471;BME280;44258;51.288;12.068;2022-10-31T02:56:01;100913.19;;;12.83;61.51
58471;BME280;44258;51.288;12.068;2022-10-31T02:58:31;100920.50;;;12.81;61.68
58471;BME280;44258;51.288;12.068;2022-10-31T03:01:22;100922.97;;;12.52;62.46
58471;BME280;44258;51.288;12.068;2022-10-31T03:07:00;100927.88;;;12.61;61.82
58471;BME280;44258;51.288;12.068;2022-10-31T03:09:34;100933.41;;;12.58;62.04
58471;BME280;44258;51.288;12.068;2022-10-31T03:12:07;100932.56;;;12.58;61.92
58471;BME280;44258;51.288;12.068;2022-10-31T03:14:40;100935.44;;;12.54;61.99
58471;BME280;44258;51.288;12.068;2022-10-31T03:17:11;100945.06;;;12.43;62.19
58471;BME280;44258;51.288;12.068;2022-10-31T03:19:45;100946.91;;;12.42;62.27
58471;BME280;44258;51.288;12.068;2022-10-31T03:22:16;100948.00;;;12.38;62.47
58471;BME280;44258;51.288;12.068;2022-10-31T03:24:46;100946.97;;;12.41;62.46
58471;BME280;44258;51.288;12.068;2022-10-31T03:27:18;100952.22;;;12.26;62.57
58471;BME280;44258;51.288;12.068;2022-10-31T03:29:50;100953.16;;;12.25;62.81
58471;BME280;44258;51.288;12.068;2022-10-31T03:32:25;100949.94;;;12.19;62.89
58471;BME280;44258;51.288;12.068;2022-10-31T03:35:01;100951.06;;;12.14;63.06
58471;BME280;44258;51.288;12.068;2022-10-31T03:37:30;100949.31;;;12.13;63.13
58471;BME280;44258;51.288;12.068;2022-10-31T03:40:00;100955.25;;;12.20;62.84
58471;BME280;44258;51.288;12.068;2022-10-31T03:42:30;100954.22;;;12.23;62.77
58471;BME280;44258;51.288;12.068;2022-10-31T03:45:01;100956.44;;;12.14;62.91
58471;BME280;44258;51.288;12.068;2022-10-31T03:47:30;100965.81;;;12.07;62.92
58471;BME280;44258;51.288;12.068;2022-10-31T03:50:00;100956.69;;;12.10;62.90
58471;BME280;44258;51.288;12.068;2022-10-31T03:52:31;100960.25;;;12.10;62.92
58471;BME280;44258;51.288;12.068;2022-10-31T03:55:05;100954.00;;;12.10;62.82
58471;BME280;44258;51.288;12.068;2022-10-31T03:57:39;100965.41;;;12.15;62.82
58471;BME280;44258;51.288;12.068;2022-10-31T04:00:08;100967.22;;;12.14;62.74
58471;BME280;44258;51.288;12.068;2022-10-31T04:02:39;100968.41;;;12.09;62.77
58471;BME280;44258;51.288;12.068;2022-10-31T04:05:10;100973.16;;;12.04;63.09
58471;BME280;44258;51.288;12.068;2022-10-31T04:07:41;100972.06;;;12.08;62.83
58471;BME280;44258;51.288;12.068;2022-10-31T04:10:13;100972.28;;;12.03;62.80
58471;BME280;44258;51.288;12.068;2022-10-31T04:12:43;100971.28;;;12.06;62.77
58471;BME280;44258;51.288;12.068;2022-10-31T04:15:13;100973.00;;;12.07;62.47
58471;BME280;44258;51.288;12.068;2022-10-31T04:17:41;100967.78;;;12.04;62.57
58471;BME280;44258;51.288;12.068;2022-10-31T04:20:15;100979.59;;;12.01;62.67
58471;BME280;44258;51.288;12.068;2022-10-31T04:22:42;100975.84;;;12.04;62.42
58471;BME280;44258;51.288;12.068;2022-10-31T04:25:09;100976.59;;;12.07;62.55
58471;BME280;44258;51.288;12.068;2022-10-31T04:27:35;100979.41;;;12.04;62.56
58471;BME280;44258;51.288;12.068;2022-10-31T04:30:08;100984.09;;;12.01;62.52
58471;BME280;44258;51.288;12.068;2022-10-31T04:32:35;100987.81;;;11.98;62.82
58471;BME280;44258;51.288;12.068;2022-10-31T04:35:02;100990.91;;;11.90;62.90
58471;BME280;44258;51.288;12.068;2022-10-31T04:37:34;100991.28;;;11.83;62.91
58471;BME280;44258;51.288;12.068;2022-10-31T04:40:00;100995.00;;;11.80;62.84
58471;BME280;44258;51.288;12.068;2022-10-31T04:42:30;100996.91;;;11.78;62.90
58471;BME280;44258;51.288;12.068;2022-10-31T04:44:57;100995.88;;;11.81;62.90
58471;BME280;44258;51.288;12.068;2022-10-31T04:47:23;100996.69;;;11.83;63.01
58471;BME280;44258;51.288;12.068;2022-10-31T04:49:50;101002.97;;;11.83;62.69
58471;BME280;44258;51.288;12.068;2022-10-31T04:52:16;101000.41;;;11.80;62.96
58471;BME280;44258;51.288;12.068;2022-10-31T04:54:44;100999.38;;;11.83;62.68
58471;BME280;44258;51.288;12.068;2022-10-31T04:57:11;100998.44;;;11.84;62.65
58471;BME280;44258;51.288;12.068;2022-10-31T04:59:37;100998.09;;;11.72;62.57
58471;BME280;44258;51.288;12.068;2022-10-31T05:02:04;100998.03;;;11.74;62.76
58471;BME280;44258;51.288;12.068;2022-10-31T05:04:31;100989.94;;;11.74;62.61
58471;BME280;44258;51.288;12.068;2022-10-31T05:06:57;100997.22;;;11.72;62.78
58471;BME280;44258;51.288;12.068;2022-10-31T05:09:24;101001.75;;;11.71;62.57
58471;BME280;44258;51.288;12.068;2022-10-31T05:11:52;100996.50;;;11.68;62.53
58471;BME280;44258;51.288;12.068;2022-10-31T05:14:21;100996.91;;;11.61;62.59
58471;BME280;44258;51.288;12.068;2022-10-31T05:16:47;100995.16;;;11.60;62.65
58471;BME280;44258;51.288;12.068;2022-10-31T05:19:14;100995.38;;;11.55;62.74
58471;BME280;44258;51.288;12.068;2022-10-31T05:21:41;100999.47;;;11.45;62.66
58471;BME280;44258;51.288;12.068;2022-10-31T05:24:08;101004.06;;;11.43;62.93
58471;BME280;44258;51.288;12.068;2022-10-31T05:26:37;100997.09;;;11.39;62.96
58471;BME280;44258;51.288;12.068;2022-10-31T05:29:05;100999.91;;;11.35;63.10
58471;BME280;44258;51.288;12.068;2022-10-31T05:31:31;100998.13;;;11.36;62.92
58471;BME280;44258;51.288;12.068;2022-10-31T05:33:58;100988.88;;;11.23;63.03
58471;BME280;44258;51.288;12.068;2022-10-31T05:36:25;100987.66;;;11.30;63.06
58471;BME280;44258;51.288;12.068;2022-10-31T05:38:52;100995.63;;;11.31;63.32
58471;BME280;44258;51.288;12.068;2022-10-31T05:41:18;100998.03;;;11.38;63.27
58471;BME280;44258;51.288;12.068;2022-10-31T05:43:47;101001.75;;;11.35;63.18
58471;BME280;44258;51.288;12.068;2022-10-31T05:46:15;100995.56;;;11.33;63.48
58471;BME280;44258;51.288;12.068;2022-10-31T05:48:43;100993.31;;;11.24;64.01
58471;BME280;44258;51.288;12.068;2022-10-31T05:51:12;100998.78;;;11.22;63.63
58471;BME280;44258;51.288;12.068;2022-10-31T05:53:38;101006.06;;;11.20;63.65
58471;BME280;44258;51.288;12.068;2022-10-31T05:56:05;101009.63;;;11.21;63.63
58471;BME280;44258;51.288;12.068;2022-10-31T05:58:32;101003.16;;;11.25;63.55
58471;BME280;44258;51.288;12.068;2022-10-31T06:01:01;101009.84;;;11.16;64.18
58471;BME280;44258;51.288;12.068;2022-10-31T06:03:29;101011.94;;;11.09;64.17
58471;BME280;44258;51.288;12.068;2022-10-31T06:05:55;101011.59;;;11.17;63.90
58471;BME280;44258;51.288;12.068;2022-10-31T06:08:22;101012.25;;;11.22;63.98
58471;BME280;44258;51.288;12.068;2022-10-31T06:10:50;101006.88;;;11.22;64.00
58471;BME280;44258;51.288;12.068;2022-10-31T06:13:18;101018.13;;;11.30;64.06
58471;BME280;44258;51.288;12.068;2022-10-31T06:15:44;101016.06;;;11.35;63.76
58471;BME280;44258;51.288;12.068;2022-10-31T06:18:11;101019.72;;;11.15;64.44
58471;BME280;44258;51.288;12.068;2022-10-31T06:20:39;101017.19;;;11.12;64.47
58471;BME280;44258;51.288;12.068;2022-10-31T06:23:05;101023.09;;;11.21;64.35
58471;BME280;44258;51.288;12.068;2022-10-31T06:25:32;101020.16;;;11.25;64.13
58471;BME280;44258;51.288;12.068;2022-10-31T06:27:59;101027.81;;;11.34;64.16
58471;BME280;44258;51.288;12.068;2022-10-31T06:30:26;101027.66;;;11.38;64.02
58471;BME280;44258;51.288;12.068;2022-10-31T06:32:52;101030.94;;;11.44;63.66
58471;BME280;44258;51.288;12.068;2022-10-31T06:35:20;101037.03;;;11.48;63.73
58471;BME280;44258;51.288;12.068;2022-10-31T06:37:52;101037.75;;;11.51;63.89
58471;BME280;44258;51.288;12.068;2022-10-31T06:40:18;101039.50;;;11.52;63.53
58471;BME280;44258;51.288;12.068;2022-10-31T06:42:45;101042.91;;;11.56;63.57
58471;BME280;44258;51.288;12.068;2022-10-31T06:45:12;101048.97;;;11.61;63.62
58471;BME280;44258;51.288;12.068;2022-10-31T06:47:38;101044.38;;;11.63;63.63
58471;BME280;44258;51.288;12.068;2022-10-31T06:50:08;101042.97;;;11.73;63.51
58471;BME280;44258;51.288;12.068;2022-10-31T06:52:34;101049.06;;;11.77;63.42
58471;BME280;44258;51.288;12.068;2022-10-31T06:55:03;101048.78;;;11.83;63.49
58471;BME280;44258;51.288;12.068;2022-10-31T06:57:32;101047.78;;;11.67;63.79
58471;BME280;44258;51.288;12.068;2022-10-31T06:59:59;101051.78;;;11.77;63.74
58471;BME280;44258;51.288;12.068;2022-10-31T07:02:28;101058.94;;;11.95;63.44
58471;BME280;44258;51.288;12.068;2022-10-31T07:04:56;101065.56;;;12.07;63.24
58471;BME280;44258;51.288;12.068;2022-10-31T07:07:23;101066.66;;;12.21;63.18
58471;BME280;44258;51.288;12.068;2022-10-31T07:09:50;101069.06;;;12.27;62.81
58471;BME280;44258;51.288;12.068;2022-10-31T07:12:18;101069.44;;;12.37;63.03
58471;BME280;44258;51.288;12.068;2022-10-31T07:14:45;101068.88;;;12.47;62.60
58471;BME280;44258;51.288;12.068;2022-10-31T07:17:13;101070.06;;;12.59;62.57
58471;BME280;44258;51.288;12.068;2022-10-31T07:19:41;101082.31;;;12.66;62.34
58471;BME280;44258;51.288;12.068;2022-10-31T07:22:07;101083.69;;;12.73;62.42
58471;BME280;44258;51.288;12.068;2022-10-31T07:24:34;101075.47;;;12.77;62.10
58471;BME280;44258;51.288;12.068;2022-10-31T07:27:01;101085.81;;;12.84;62.27
58471;BME280;44258;51.288;12.068;2022-10-31T07:29:29;101084.53;;;12.91;62.04
58471;BME280;44258;51.288;12.068;2022-10-31T07:31:57;101082.31;;;13.00;61.82
58471;BME280;44258;51.288;12.068;2022-10-31T07:34:26;101085.38;;;13.09;61.88
58471;BME280;44258;51.288;12.068;2022-10-31T07:36:55;101083.81;;;13.21;61.73
58471;BME280;44258;51.288;12.068;2022-10-31T07:39:22;101073.41;;;13.31;61.58
58471;BME280;44258;51.288;12.068;2022-10-31T07:41:48;101082.06;;;13.38;61.24
58471;BME280;44258;51.288;12.068;2022-10-31T07:44:15;101077.34;;;13.41;61.46
58471;BME280;44258;51.288;12.068;2022-10-31T07:46:43;101076.03;;;13.48;61.34
58471;BME280;44258;51.288;12.068;2022-10-31T07:49:12;101077.34;;;13.57;61.43
58471;BME280;44258;51.288;12.068;2022-10-31T07:51:39;101071.25;;;13.69;61.30
58471;BME280;44258;51.288;12.068;2022-10-31T07:54:05;101080.75;;;13.77;61.03
58471;BME280;44258;51.288;12.068;2022-10-31T07:56:32;101085.81;;;13.83;61.04
58471;BME280;44258;51.288;12.068;2022-10-31T07:58:59;101082.63;;;13.90;61.01
58471;BME280;44258;51.288;12.068;2022-10-31T08:01:25;101077.69;;;13.99;60.66
58471;BME280;44258;51.288;12.068;2022-10-31T08:03:54;101064.81;;;14.02;60.70
58471;BME280;44258;51.288;12.068;2022-10-31T08:06:21;101077.91;;;14.10;60.54
58471;BME280;44258;51.288;12.068;2022-10-31T08:08:48;101077.75;;;14.13;60.09
58471;BME280;44258;51.288;12.068;2022-10-31T08:11:14;101074.56;;;14.21;60.36
58471;BME280;44258;51.288;12.068;2022-10-31T08:13:41;101079.44;;;14.30;60.30
58471;BME280;44258;51.288;12.068;2022-10-31T08:16:08;101071.19;;;14.47;60.29
58471;BME280;44258;51.288;12.068;2022-10-31T08:18:35;101080.13;;;14.64;60.03
58471;BME280;44258;51.288;12.068;2022-10-31T08:21:04;101073.19;;;14.74;59.93
58471;BME280;44258;51.288;12.068;2022-10-31T08:23:30;101078.50;;;14.90;59.60
58471;BME280;44258;51.288;12.068;2022-10-31T08:25:57;101082.28;;;15.02;59.62
58471;BME280;44258;51.288;12.068;2022-10-31T08:28:24;101076.09;;;15.14;59.83
58471;BME280;44258;51.288;12.068;2022-10-31T08:30:51;101065.13;;;15.30;59.63
58471;BME280;44258;51.288;12.068;2022-10-31T08:33:19;101072.59;;;15.41;59.58
58471;BME280;44258;51.288;12.068;2022-10-31T08:35:45;101069.00;;;15.54;59.58
58471;BME280;44258;51.288;12.068;2022-10-31T08:38:14;101071.97;;;15.64;59.13
58471;BME280;44258;51.288;12.068;2022-10-31T08:40:41;101076.00;;;15.71;58.57
58471;BME280;44258;51.288;12.068;2022-10-31T08:43:11;101078.63;;;15.73;58.63
58471;BME280;44258;51.288;12.068;2022-10-31T08:45:38;101074.06;;;15.73;58.48
58471;BME280;44258;51.288;12.068;2022-10-31T08:48:09;101083.97;;;15.74;58.69
58471;BME280;44258;51.288;12.068;2022-10-31T08:50:37;101077.47;;;15.77;58.86
58471;BME280;44258;51.288;12.068;2022-10-31T08:53:06;101077.16;;;15.82;58.89
58471;BME280;44258;51.288;12.068;2022-10-31T08:55:35;101068.25;;;15.80;58.87
58471;BME280;44258;51.288;12.068;2022-10-31T08:58:04;101069.19;;;15.93;58.76
58471;BME280;44258;51.288;12.068;2022-10-31T09:00:31;101066.06;;;15.99;58.41
58471;BME280;44258;51.288;12.068;2022-10-31T09:02:59;101069.88;;;16.09;58.66
58471;BME280;44258;51.288;12.068;2022-10-31T09:05:26;101068.78;;;16.12;58.33
58471;BME280;44258;51.288;12.068;2022-10-31T09:07:55;101071.31;;;16.15;58.51
58471;BME280;44258;51.288;12.068;2022-10-31T09:10:21;101064.28;;;16.25;58.53
58471;BME280;44258;51.288;12.068;2022-10-31T09:12:55;101063.91;;;16.31;58.73
58471;BME280;44258;51.288;12.068;2022-10-31T09:15:22;101063.81;;;16.46;58.43
58471;BME280;44258;51.288;12.068;2022-10-31T09:17:53;101061.25;;;16.57;58.54
58471;BME280;44258;51.288;12.068;2022-10-31T09:20:20;101067.53;;;16.58;58.29
58471;BME280;44258;51.288;12.068;2022-10-31T09:22:47;101058.06;;;16.50;58.39
58471;BME280;44258;51.288;12.068;2022-10-31T09:25:14;101063.06;;;16.57;58.38
58471;BME280;44258;51.288;12.068;2022-10-31T09:27:41;101056.16;;;16.25;59.90
58471;BME280;44258;51.288;12.068;2022-10-31T09:30:11;101055.16;;;16.26;60.37
58471;BME280;44258;51.288;12.068;2022-10-31T09:32:38;101055.66;;;16.33;60.60
58471;BME280;44258;51.288;12.068;2022-10-31T09:35:06;101045.19;;;16.27;60.72
58471;BME280;44258;51.288;12.068;2022-10-31T09:37:33;101044.66;;;16.34;60.78
58471;BME280;44258;51.288;12.068;2022-10-31T09:39:59;101049.63;;;16.28;61.00
58471;BME280;44258;51.288;12.068;2022-10-31T09:42:37;101052.66;;;16.10;62.00
58471;BME280;44258;51.288;12.068;2022-10-31T09:45:10;101050.53;;;16.01;62.80
58471;BME280;44258;51.288;12.068;2022-10-31T09:47:51;101051.94;;;15.94;63.38
58471;BME280;44258;51.288;12.068;2022-10-31T09:50:24;101044.53;;;16.23;62.37
58471;BME280;44258;51.288;12.068;2022-10-31T09:52:58;101045.47;;;16.49;61.24
58471;BME280;44258;51.288;12.068;2022-10-31T09:55:30;101054.38;;;16.64;60.84
58471;BME280;44258;51.288;12.068;2022-10-31T09:57:59;101049.06;;;16.50;61.61
58471;BME280;44258;51.288;12.068;2022-10-31T10:00:27;101049.69;;;16.41;61.59
58471;BME280;44258;51.288;12.068;2022-10-31T10:02:59;101043.28;;;16.29;61.93
58471;BME280;44258;51.288;12.068;2022-10-31T10:05:33;101044.44;;;16.25;61.94
58471;BME280;44258;51.288;12.068;2022-10-31T10:08:07;101045.84;;;16.30;62.09
58471;BME280;44258;51.288;12.068;2022-10-31T10:10:45;101048.56;;;16.30;62.62
58471;BME280;44258;51.288;12.068;2022-10-31T10:13:25;101043.34;;;16.27;62.50
58471;BME280;44258;51.288;12.068;2022-10-31T10:16:15;101039.75;;;16.27;62.40
58471;BME280;44258;51.288;12.068;2022-10-31T10:18:52;101040.81;;;16.24;62.06
58471;BME280;44258;51.288;12.068;2022-10-31T10:21:32;101043.72;;;16.36;62.04
58471;BME280;44258;51.288;12.068;2022-10-31T10:24:20;101037.09;;;16.40;61.89
58471;BME280;44258;51.288;12.068;2022-10-31T10:26:52;101034.94;;;16.70;61.07
58471;BME280;44258;51.288;12.068;2022-10-31T10:29:32;101036.78;;;16.70;60.86
58471;BME280;44258;51.288;12.068;2022-10-31T10:32:07;101040.81;;;16.51;61.60
58471;BME280;44258;51.288;12.068;2022-10-31T10:34:43;101030.59;;;16.68;61.33
58471;BME280;44258;51.288;12.068;2022-10-31T10:37:20;101032.47;;;16.67;61.29
58471;BME280;44258;51.288;12.068;2022-10-31T10:39:53;101028.84;;;16.67;61.68
58471;BME280;44258;51.288;12.068;2022-10-31T10:42:23;101039.91;;;16.38;62.58
58471;BME280;44258;51.288;12.068;2022-10-31T10:45:17;101029.84;;;16.66;61.57
58471;BME280;44258;51.288;12.068;2022-10-31T10:48:15;101024.19;;;16.82;61.28
58471;BME280;44258;51.288;12.068;2022-10-31T10:50:47;101015.47;;;17.02;60.90
58471;BME280;44258;51.288;12.068;2022-10-31T10:53:34;101018.75;;;16.82;61.13
58471;BME280;44258;51.288;12.068;2022-10-31T10:56:11;101019.63;;;16.69;61.80
58471;BME280;44258;51.288;12.068;2022-10-31T10:58:43;101021.69;;;16.79;61.72
58471;BME280;44258;51.288;12.068;2022-10-31T11:01:11;101019.97;;;16.78;61.46
58471;BME280;44258;51.288;12.068;2022-10-31T11:03:39;101024.06;;;16.70;61.98
58471;BME280;44258;51.288;12.068;2022-10-31T11:06:17;101015.91;;;16.45;62.70
58471;BME280;44258;51.288;12.068;2022-10-31T11:08:47;101018.75;;;16.43;63.35
58471;BME280;44258;51.288;12.068;2022-10-31T11:11:24;101011.94;;;16.10;64.18
58471;BME280;44258;51.288;12.068;2022-10-31T11:13:59;101018.09;;;16.40;63.83
58471;BME280;44258;51.288;12.068;2022-10-31T11:16:30;101015.38;;;16.78;62.45
58471;BME280;44258;51.288;12.068;2022-10-31T11:19:07;101013.34;;;16.82;62.14
58471;BME280;44258;51.288;12.068;2022-10-31T11:21:37;100999.94;;;16.91;61.56
58471;BME280;44258;51.288;12.068;2022-10-31T11:24:14;100995.81;;;16.99;61.65
58471;BME280;44258;51.288;12.068;2022-10-31T11:26:41;100998.47;;;17.11;61.28
58471;BME280;44258;51.288;12.068;2022-10-31T11:29:14;100984.13;;;17.09;61.23
58471;BME280;44258;51.288;12.068;2022-10-31T11:31:45;100983.19;;;17.10;61.25
58471;BME280;44258;51.288;12.068;2022-10-31T11:34:26;100978.69;;;16.60;62.25
58471;BME280;44258;51.288;12.068;2022-10-31T11:37:02;100979.75;;;16.70;62.62
58471;BME280;44258;51.288;12.068;2022-10-31T11:39:43;100976.09;;;17.08;61.77
58471;BME280;44258;51.288;12.068;2022-10-31T11:42:13;100975.16;;;16.96;62.08
58471;BME280;44258;51.288;12.068;2022-10-31T11:44:42;100969.44;;;17.12;61.26
58471;BME280;44258;51.288;12.068;2022-10-31T11:47:13;100965.28;;;17.32;60.98
58471;BME280;44258;51.288;12.068;2022-10-31T11:49:47;100972.03;;;17.39;60.48
58471;BME280;44258;51.288;12.068;2022-10-31T11:52:18;100966.22;;;17.44;60.67
58471;BME280;44258;51.288;12.068;2022-10-31T11:54:49;100973.75;;;16.90;61.61
58471;BME280;44258;51.288;12.068;2022-10-31T11:57:25;100966.41;;;16.54;62.76
58471;BME280;44258;51.288;12.068;2022-10-31T11:59:55;100958.66;;;16.86;62.34
58471;BME280;44258;51.288;12.068;2022-10-31T12:02:25;100962.69;;;16.81;62.12
58471;BME280;44258;51.288;12.068;2022-10-31T12:05:02;100962.66;;;17.06;61.44
58471;BME280;44258;51.288;12.068;2022-10-31T12:07:32;100956.44;;;17.04;61.84
58471;BME280;44258;51.288;12.068;2022-10-31T12:10:00;100955.75;;;17.13;61.59
58471;BME280;44258;51.288;12.068;2022-10-31T12:12:46;100956.63;;;17.27;61.16
58471;BME280;44258;51.288;12.068;2022-10-31T12:15:27;100951.50;;;17.35;60.55
58471;BME280;44258;51.288;12.068;2022-10-31T12:18:25;100940.97;;;17.30;60.77
58471;BME280;44258;51.288;12.068;2022-10-31T12:21:04;100945.69;;;17.40;60.87
58471;BME280;44258;51.288;12.068;2022-10-31T12:23:48;100935.63;;;16.92;62.58
58471;BME280;44258;51.288;12.068;2022-10-31T12:26:22;100935.94;;;17.37;61.11
58471;BME280;44258;51.288;12.068;2022-10-31T12:29:02;100929.97;;;17.32;61.26
58471;BME280;44258;51.288;12.068;2022-10-31T12:31:46;100930.19;;;17.16;61.38
58471;BME280;44258;51.288;12.068;2022-10-31T12:34:38;100925.88;;;17.13;61.88
58471;BME280;44258;51.288;12.068;2022-10-31T12:37:18;100916.19;;;17.46;60.74
58471;BME280;44258;51.288;12.068;2022-10-31T12:39:56;100912.06;;;17.65;60.33
58471;BME280;44258;51.288;12.068;2022-10-31T12:42:40;100913.53;;;17.58;60.93
58471;BME280;44258;51.288;12.068;2022-10-31T12:45:35;100923.66;;;17.31;61.35
58471;BME280;44258;51.288;12.068;2022-10-31T12:48:17;100922.97;;;17.04;62.73
58471;BME280;44258;51.288;12.068;2022-10-31T12:50:52;100911.91;;;17.55;61.09
58471;BME280;44258;51.288;12.068;2022-10-31T12:53:35;100913.44;;;17.35;61.14
58471;BME280;44258;51.288;12.068;2022-10-31T12:56:16;100914.22;;;17.48;61.51
58471;BME280;44258;51.288;12.068;2022-10-31T12:58:53;100904.75;;;17.89;60.34
58471;BME280;44258;51.288;12.068;2022-10-31T13:01:32;100897.81;;;17.85;60.06
58471;BME280;44258;51.288;12.068;2022-10-31T13:04:04;100902.19;;;17.64;60.30
58471;BME280;44258;51.288;12.068;2022-10-31T13:06:33;100899.38;;;17.77;60.70